Terminal Aerodrome Forecast
Issued by NWS

Home | Current Version | Previous Version | Text Only | Print | Product List | Glossary On
Versions: 1 2 3 4 5 6 7 8 9 10 11 12 13 14 15 16 17
000
FTUS43 KPAH 232300
TAFCGI
TAF
KCGI 232335Z 2400/2424 36007KT 6SM -RA BR OVC040
     FM240600 35011KT 4SM -RA BR OVC012
     FM241400 29009KT 6SM BR OVC025=

USA.gov is the U.S. government's official web portal to all federal, state and local government web resources and services.